createdAt,value
2023-01-22T00:00:18.574Z,18.90
2023-01-22T00:02:47.519Z,17.53
2023-01-22T00:05:15.363Z,16.93
2023-01-22T00:07:44.567Z,16.40
2023-01-22T00:10:12.964Z,16.80
2023-01-22T00:12:40.903Z,16.93
2023-01-22T00:15:09.239Z,15.80
2023-01-22T00:17:38.011Z,15.07
2023-01-22T00:20:06.521Z,16.93
2023-01-22T00:22:34.295Z,14.23
2023-01-22T00:25:05.518Z,14.47
2023-01-22T00:27:34.612Z,10.73
2023-01-22T00:30:02.590Z,15.90
2023-01-22T00:32:30.745Z,20.50
2023-01-22T00:34:58.512Z,15.73
2023-01-22T00:37:26.681Z,14.73
2023-01-22T00:39:54.695Z,16.90
2023-01-22T00:42:24.003Z,16.97
2023-01-22T00:44:52.267Z,14.47
2023-01-22T00:47:20.098Z,15.10
2023-01-22T00:49:48.283Z,18.53
2023-01-22T00:52:15.963Z,13.43
2023-01-22T00:54:44.144Z,20.60
2023-01-22T00:57:11.914Z,12.23
2023-01-22T00:59:41.007Z,24.00
2023-01-22T01:02:09.138Z,14.37
2023-01-22T01:04:38.797Z,12.70
2023-01-22T01:07:06.935Z,11.27
2023-01-22T01:09:34.705Z,11.83
2023-01-22T01:12:03.037Z,17.07
2023-01-22T01:14:32.228Z,16.53
2023-01-22T01:17:01.476Z,9.87
2023-01-22T01:19:29.836Z,14.57
2023-01-22T01:21:57.788Z,23.30
2023-01-22T01:24:25.725Z,25.90
2023-01-22T01:26:53.778Z,31.23
2023-01-22T01:29:21.493Z,30.40
2023-01-22T01:31:53.456Z,29.50
2023-01-22T01:34:23.162Z,29.33
2023-01-22T01:36:50.866Z,27.07
2023-01-22T01:39:18.810Z,24.37
2023-01-22T01:41:46.762Z,24.00
2023-01-22T01:44:16.451Z,19.60
2023-01-22T01:46:48.188Z,14.40
2023-01-22T01:49:27.802Z,12.87
2023-01-22T01:51:57.013Z,13.33
2023-01-22T01:54:25.100Z,10.30
2023-01-22T01:56:55.609Z,14.77
2023-01-22T01:59:23.882Z,20.20
2023-01-22T02:01:54.220Z,19.30
2023-01-22T02:04:22.820Z,17.30
2023-01-22T02:06:52.262Z,19.03
2023-01-22T02:09:20.579Z,19.10
2023-01-22T02:11:48.518Z,22.27
2023-01-22T02:14:18.892Z,20.77
2023-01-22T02:16:46.784Z,29.37
2023-01-22T02:19:14.589Z,31.13
2023-01-22T02:21:44.574Z,34.73
2023-01-22T02:24:13.676Z,28.43
2023-01-22T02:26:42.202Z,26.90
2023-01-22T02:29:10.532Z,30.93
2023-01-22T02:31:39.159Z,34.33
2023-01-22T02:34:07.774Z,35.07
2023-01-22T02:36:37.425Z,34.20
2023-01-22T02:39:07.153Z,35.87
2023-01-22T02:41:36.431Z,33.20
2023-01-22T02:44:07.514Z,32.70
2023-01-22T02:46:35.781Z,32.20
2023-01-22T02:49:04.449Z,29.87
2023-01-22T02:51:32.421Z,27.40
2023-01-22T02:54:00.603Z,27.67
2023-01-22T02:56:29.792Z,24.47
2023-01-22T02:58:57.603Z,20.07
2023-01-22T03:01:26.227Z,22.23
2023-01-22T03:03:55.153Z,20.93
2023-01-22T03:06:24.049Z,16.87
2023-01-22T03:08:53.526Z,16.20
2023-01-22T03:11:21.394Z,9.40
2023-01-22T03:14:08.414Z,10.60
2023-01-22T03:16:53.568Z,11.53
2023-01-22T03:19:40.433Z,8.77
2023-01-22T03:22:08.170Z,7.57
2023-01-22T03:24:36.396Z,7.67
2023-01-22T03:27:05.643Z,8.17
2023-01-22T03:29:38.588Z,8.10
2023-01-22T03:32:07.877Z,9.77
2023-01-22T03:34:35.728Z,7.17
2023-01-22T03:37:03.951Z,5.40
2023-01-22T03:39:33.402Z,8.63
2023-01-22T03:42:01.332Z,5.07
2023-01-22T03:44:29.587Z,8.03
2023-01-22T03:46:59.115Z,5.90
2023-01-22T03:49:27.047Z,8.33
2023-01-22T03:51:55.509Z,6.93
2023-01-22T03:54:23.428Z,8.43
2023-01-22T03:56:51.619Z,7.20
2023-01-22T03:59:20.429Z,6.80
2023-01-22T04:01:48.172Z,6.27
2023-01-22T04:04:17.553Z,5.97
2023-01-22T04:06:45.630Z,6.03
2023-01-22T04:09:13.645Z,6.93
2023-01-22T04:11:41.375Z,7.70
2023-01-22T04:14:09.281Z,6.50
2023-01-22T04:16:37.738Z,6.33
2023-01-22T04:19:05.548Z,8.87
2023-01-22T04:21:35.052Z,10.23
2023-01-22T04:24:02.824Z,8.20
2023-01-22T04:26:30.536Z,5.90
2023-01-22T04:28:58.392Z,6.30
2023-01-22T04:31:28.689Z,7.97
2023-01-22T04:33:56.694Z,8.37
2023-01-22T04:36:24.459Z,6.33
2023-01-22T04:38:53.777Z,6.87
2023-01-22T04:41:21.554Z,8.03
2023-01-22T04:43:50.460Z,7.77
2023-01-22T04:46:18.748Z,13.10
2023-01-22T04:48:47.467Z,13.23
2023-01-22T04:51:15.192Z,8.53
2023-01-22T04:53:43.118Z,8.90
2023-01-22T04:56:12.689Z,8.47
2023-01-22T04:58:42.778Z,8.37
2023-01-22T05:01:10.651Z,9.13
2023-01-22T05:03:38.570Z,5.97
2023-01-22T05:06:06.777Z,6.83
2023-01-22T05:08:34.739Z,6.13
2023-01-22T05:11:02.432Z,8.20
2023-01-22T05:13:31.975Z,5.40
2023-01-22T05:15:59.998Z,5.77
2023-01-22T05:18:28.063Z,4.97
2023-01-22T05:20:56.306Z,5.37
2023-01-22T05:23:24.442Z,4.40
2023-01-22T05:25:52.222Z,4.37
2023-01-22T05:28:20.030Z,5.37
2023-01-22T05:30:50.314Z,5.73
2023-01-22T05:33:19.080Z,4.33
2023-01-22T05:35:46.940Z,6.80
2023-01-22T05:38:15.109Z,7.00
2023-01-22T05:40:42.798Z,8.03
2023-01-22T05:43:10.875Z,6.33
2023-01-22T05:45:38.635Z,8.53
2023-01-22T05:48:07.826Z,11.23
2023-01-22T05:50:36.722Z,20.23
2023-01-22T05:53:05.415Z,28.67
2023-01-22T05:55:33.504Z,35.23
2023-01-22T05:58:01.619Z,46.83
2023-01-22T06:00:29.698Z,28.33
2023-01-22T06:02:58.009Z,15.40
2023-01-22T06:05:27.259Z,14.00
2023-01-22T06:07:56.073Z,15.00
2023-01-22T06:10:23.742Z,14.67
2023-01-22T06:12:51.406Z,14.73
2023-01-22T06:15:21.468Z,18.37
2023-01-22T06:17:49.254Z,15.93
2023-01-22T06:20:17.565Z,14.90
2023-01-22T06:22:47.055Z,18.63
2023-01-22T06:25:14.807Z,13.70
2023-01-22T06:27:42.776Z,22.93
2023-01-22T06:30:12.827Z,15.60
2023-01-22T06:32:40.842Z,17.77
2023-01-22T06:35:09.177Z,19.90
2023-01-22T06:37:39.690Z,16.27
2023-01-22T06:40:10.049Z,19.73
2023-01-22T06:42:38.201Z,15.50
2023-01-22T06:45:07.521Z,20.13
2023-01-22T06:47:36.373Z,19.87
2023-01-22T06:50:04.665Z,15.87
2023-01-22T06:52:32.833Z,20.33
2023-01-22T06:55:00.534Z,27.77
2023-01-22T06:57:29.846Z,30.37
2023-01-22T06:59:57.677Z,9.03
2023-01-22T07:02:25.884Z,7.77
2023-01-22T07:04:54.138Z,8.77
2023-01-22T07:07:22.347Z,9.90
2023-01-22T07:09:50.378Z,16.97
2023-01-22T07:12:18.500Z,14.27
2023-01-22T07:14:47.891Z,18.57
2023-01-22T07:17:15.685Z,8.77
2023-01-22T07:19:43.419Z,8.50
2023-01-22T07:22:11.086Z,12.33
2023-01-22T07:24:39.162Z,12.37
2023-01-22T07:27:06.991Z,13.53
2023-01-22T07:29:34.725Z,19.47
2023-01-22T07:32:03.968Z,15.77
2023-01-22T07:34:32.247Z,13.97
2023-01-22T07:37:02.012Z,15.03
2023-01-22T07:39:30.275Z,13.83
2023-01-22T07:42:01.607Z,9.87
2023-01-22T07:44:29.991Z,10.13
2023-01-22T07:46:58.001Z,12.60
2023-01-22T07:49:28.085Z,11.73
2023-01-22T07:51:55.785Z,11.67
2023-01-22T07:54:23.758Z,15.23
2023-01-22T07:56:51.584Z,18.30
2023-01-22T07:59:19.518Z,34.70
2023-01-22T08:01:47.579Z,33.83
2023-01-22T08:04:15.308Z,28.73
2023-01-22T08:06:44.710Z,26.67
2023-01-22T08:09:12.448Z,31.23
2023-01-22T08:11:40.478Z,32.27
2023-01-22T08:14:08.129Z,28.87
2023-01-22T08:16:37.139Z,27.00
2023-01-22T08:19:06.429Z,24.37
2023-01-22T08:21:34.142Z,24.70
2023-01-22T08:24:05.139Z,28.63
2023-01-22T08:26:33.018Z,24.27
2023-01-22T08:29:04.834Z,25.97
2023-01-22T08:31:36.843Z,24.17
2023-01-22T08:34:04.671Z,27.43
2023-01-22T08:36:32.406Z,32.33
2023-01-22T08:39:00.514Z,26.73
2023-01-22T08:41:30.011Z,21.87
2023-01-22T08:43:57.988Z,24.90
2023-01-22T08:46:26.148Z,22.30
2023-01-22T08:48:54.077Z,27.57
2023-01-22T08:51:25.744Z,41.50
2023-01-22T08:53:53.586Z,32.50
2023-01-22T08:56:21.355Z,24.60
2023-01-22T08:58:51.520Z,25.13
2023-01-22T09:01:20.189Z,26.13
2023-01-22T09:03:48.862Z,24.90
2023-01-22T09:06:16.702Z,32.77
2023-01-22T09:08:44.655Z,35.40
2023-01-22T09:11:12.899Z,39.20
2023-01-22T09:13:40.667Z,30.67
2023-01-22T09:16:11.939Z,32.00
2023-01-22T09:18:40.622Z,29.67
2023-01-22T09:21:08.494Z,27.67
2023-01-22T09:23:36.488Z,24.73
2023-01-22T09:26:04.464Z,26.70
2023-01-22T09:28:34.110Z,25.27
2023-01-22T09:31:03.565Z,25.67
2023-01-22T09:33:33.062Z,25.10
2023-01-22T09:36:07.817Z,24.03
2023-01-22T09:38:35.713Z,21.77
2023-01-22T09:41:05.108Z,29.73
2023-01-22T09:43:34.017Z,38.07
2023-01-22T09:46:03.432Z,36.67
2023-01-22T09:48:35.984Z,27.43
2023-01-22T09:51:04.109Z,40.00
2023-01-22T09:53:32.491Z,38.10
2023-01-22T09:56:01.358Z,35.23
2023-01-22T09:58:29.249Z,28.17
2023-01-22T10:01:00.505Z,33.77
2023-01-22T10:03:31.440Z,15.43
2023-01-22T10:06:02.254Z,19.80
2023-01-22T10:08:33.472Z,28.10
2023-01-22T10:11:02.297Z,18.57
2023-01-22T10:13:32.436Z,24.07
2023-01-22T10:16:00.383Z,26.43
2023-01-22T10:18:34.787Z,28.13
2023-01-22T10:21:05.468Z,23.87
2023-01-22T10:23:36.902Z,28.90
2023-01-22T10:26:08.872Z,22.20
2023-01-22T10:28:36.702Z,24.13
2023-01-22T10:31:04.514Z,21.93
2023-01-22T10:33:39.053Z,19.30
2023-01-22T10:36:08.820Z,24.30
2023-01-22T10:38:36.482Z,20.70
2023-01-22T10:41:05.204Z,18.47
2023-01-22T10:43:34.602Z,23.93
2023-01-22T10:46:05.225Z,20.33
2023-01-22T10:48:33.351Z,15.50
2023-01-22T10:51:04.123Z,20.03
2023-01-22T10:53:34.618Z,14.80
2023-01-22T10:56:04.041Z,16.00
2023-01-22T10:58:33.296Z,17.53
2023-01-22T11:01:02.498Z,16.50
2023-01-22T11:03:32.472Z,16.77
2023-01-22T11:06:01.490Z,13.67
2023-01-22T11:08:32.115Z,13.53
2023-01-22T11:11:03.387Z,11.33
2023-01-22T11:13:33.007Z,15.00
2023-01-22T11:16:05.578Z,18.20
2023-01-22T11:18:35.841Z,18.80
2023-01-22T11:21:07.277Z,18.87
2023-01-22T11:23:40.264Z,20.77
2023-01-22T11:26:13.752Z,19.57
2023-01-22T11:28:45.672Z,16.27
2023-01-22T11:31:21.885Z,10.67
2023-01-22T11:33:56.602Z,31.20
2023-01-22T11:36:26.988Z,24.87
2023-01-22T11:38:56.361Z,12.57
2023-01-22T11:41:43.379Z,13.53
2023-01-22T11:44:22.258Z,9.07
2023-01-22T11:46:56.956Z,5.97
2023-01-22T11:49:31.080Z,4.57
2023-01-22T11:52:05.005Z,3.67
2023-01-22T11:54:38.474Z,6.40
2023-01-22T11:57:11.197Z,10.27
2023-01-22T11:59:45.888Z,5.60
2023-01-22T12:02:23.847Z,5.03
2023-01-22T12:04:58.434Z,4.03
2023-01-22T12:07:36.533Z,5.83
2023-01-22T12:10:13.040Z,4.33
2023-01-22T12:12:49.582Z,3.17
2023-01-22T12:15:26.436Z,4.23
2023-01-22T12:18:00.000Z,4.07
2023-01-22T12:20:33.666Z,4.27
2023-01-22T12:23:03.666Z,3.27
2023-01-22T12:25:35.816Z,3.53
2023-01-22T12:28:09.596Z,2.70
2023-01-22T12:30:43.735Z,6.47
2023-01-22T12:33:13.694Z,4.43
2023-01-22T12:35:44.931Z,3.93
2023-01-22T12:38:16.383Z,2.50
2023-01-22T12:40:54.061Z,3.60
2023-01-22T12:43:28.763Z,3.40
2023-01-22T12:45:59.628Z,3.53
2023-01-22T12:48:31.536Z,2.63
2023-01-22T12:50:59.841Z,4.17
2023-01-22T12:53:30.080Z,2.90
2023-01-22T12:56:02.888Z,3.43
2023-01-22T12:58:32.863Z,3.27
2023-01-22T13:01:03.533Z,5.97
2023-01-22T13:03:32.925Z,3.80
2023-01-22T13:06:01.879Z,3.93
2023-01-22T13:08:36.799Z,2.33
2023-01-22T13:11:05.984Z,5.17
2023-01-22T13:13:37.745Z,4.20
2023-01-22T13:16:06.389Z,5.00
2023-01-22T13:18:36.098Z,2.90
2023-01-22T13:21:05.611Z,3.33
2023-01-22T13:23:34.947Z,2.60
2023-01-22T13:26:03.686Z,4.30
2023-01-22T13:28:31.466Z,4.30
2023-01-22T13:31:02.441Z,7.20
2023-01-22T13:33:30.552Z,5.13
2023-01-22T13:35:59.493Z,4.97
2023-01-22T13:38:27.933Z,8.53
2023-01-22T13:40:57.440Z,7.80
2023-01-22T13:43:26.016Z,3.63
2023-01-22T13:45:55.526Z,6.83
2023-01-22T13:48:25.464Z,3.17
2023-01-22T13:50:55.195Z,3.37
2023-01-22T13:53:29.328Z,4.00
2023-01-22T13:55:57.382Z,2.10
2023-01-22T13:58:46.717Z,3.57
2023-01-22T14:01:27.013Z,7.23
2023-01-22T14:04:01.302Z,7.47
2023-01-22T14:06:29.319Z,7.47
2023-01-22T14:08:58.379Z,5.73
2023-01-22T14:11:26.274Z,3.40
2023-01-22T14:13:54.632Z,6.93
2023-01-22T14:16:22.546Z,4.70
2023-01-22T14:18:50.582Z,7.20
2023-01-22T14:21:21.892Z,5.17
2023-01-22T14:23:50.233Z,2.60
2023-01-22T14:26:18.198Z,3.17
2023-01-22T14:28:45.815Z,4.07
2023-01-22T14:31:14.151Z,3.10
2023-01-22T14:33:42.142Z,3.57
2023-01-22T14:36:10.759Z,3.40
2023-01-22T14:38:40.699Z,4.53
2023-01-22T14:41:08.661Z,3.90
2023-01-22T14:43:36.856Z,3.40
2023-01-22T14:46:07.733Z,3.53
2023-01-22T14:48:35.583Z,3.40
2023-01-22T14:51:08.878Z,4.80
2023-01-22T14:53:36.906Z,5.00
2023-01-22T14:56:06.310Z,6.67
2023-01-22T14:58:34.361Z,9.57
2023-01-22T15:01:02.480Z,4.87
2023-01-22T15:03:31.221Z,4.50
2023-01-22T15:05:59.355Z,4.27
2023-01-22T15:08:28.522Z,3.07
2023-01-22T15:10:56.323Z,4.63
2023-01-22T15:13:25.968Z,5.33
2023-01-22T15:15:54.056Z,13.27
2023-01-22T15:18:22.042Z,9.43
2023-01-22T15:20:50.348Z,10.50
2023-01-22T15:23:20.714Z,11.73
2023-01-22T15:25:57.023Z,12.80
2023-01-22T15:28:26.470Z,17.23
2023-01-22T15:30:56.900Z,17.30
2023-01-22T15:33:25.063Z,17.93
2023-01-22T15:35:54.781Z,13.27
2023-01-22T15:38:22.851Z,11.03
2023-01-22T15:40:50.847Z,13.83
2023-01-22T15:43:18.790Z,12.63
2023-01-22T15:45:48.805Z,13.83
2023-01-22T15:48:16.859Z,11.00
2023-01-22T15:50:44.617Z,10.33
2023-01-22T15:53:12.529Z,10.23
2023-01-22T15:55:40.294Z,9.80
2023-01-22T15:58:08.503Z,10.67
2023-01-22T16:00:40.307Z,14.20
2023-01-22T16:03:12.053Z,9.87
2023-01-22T16:05:40.334Z,10.20
2023-01-22T16:08:08.029Z,12.40
2023-01-22T16:10:36.032Z,10.67
2023-01-22T16:13:06.622Z,8.53
2023-01-22T16:15:34.397Z,10.67
2023-01-22T16:18:02.451Z,7.77
2023-01-22T16:20:31.870Z,7.87
2023-01-22T16:22:59.841Z,9.73
2023-01-22T16:25:27.962Z,9.40
2023-01-22T16:27:55.830Z,11.20
2023-01-22T16:30:24.051Z,7.63
2023-01-22T16:32:53.574Z,8.23
2023-01-22T16:35:21.282Z,7.97
2023-01-22T16:37:50.475Z,7.33
2023-01-22T16:40:18.760Z,15.23
2023-01-22T16:42:58.767Z,8.03
2023-01-22T16:45:26.774Z,8.00
2023-01-22T16:47:55.836Z,9.47
2023-01-22T16:50:23.816Z,7.40
2023-01-22T16:52:53.589Z,6.30
2023-01-22T16:55:21.447Z,7.87
2023-01-22T16:57:49.391Z,7.23
2023-01-22T17:00:17.816Z,8.90
2023-01-22T17:02:45.929Z,6.47
2023-01-22T17:05:14.553Z,7.63
2023-01-22T17:07:42.715Z,7.13
2023-01-22T17:10:12.896Z,7.07
2023-01-22T17:12:40.844Z,6.90
2023-01-22T17:15:09.332Z,5.33
2023-01-22T17:17:44.430Z,8.67
2023-01-22T17:20:13.379Z,5.93
2023-01-22T17:22:42.942Z,9.00
2023-01-22T17:25:12.819Z,7.00
2023-01-22T17:27:41.223Z,6.47
2023-01-22T17:30:11.001Z,9.50
2023-01-22T17:32:39.048Z,9.17
2023-01-22T17:35:10.113Z,7.40
2023-01-22T17:37:38.231Z,8.80
2023-01-22T17:40:06.684Z,13.30
2023-01-22T17:42:36.001Z,8.30
2023-01-22T17:45:08.672Z,11.30
2023-01-22T17:47:36.492Z,8.23
2023-01-22T17:50:04.879Z,6.53
2023-01-22T17:52:33.812Z,7.27
2023-01-22T17:55:01.962Z,7.57
2023-01-22T17:57:29.832Z,13.90
2023-01-22T17:59:59.120Z,12.67
2023-01-22T18:02:28.291Z,10.47
2023-01-22T18:04:56.682Z,14.10
2023-01-22T18:07:25.536Z,13.27
2023-01-22T18:09:53.515Z,11.40
2023-01-22T18:12:21.858Z,9.93
2023-01-22T18:14:50.630Z,15.30
2023-01-22T18:17:20.326Z,12.43
2023-01-22T18:19:49.158Z,11.27
2023-01-22T18:22:18.903Z,12.87
2023-01-22T18:24:46.845Z,16.53
2023-01-22T18:27:15.440Z,14.90
2023-01-22T18:29:43.589Z,10.77
2023-01-22T18:32:11.615Z,10.97
2023-01-22T18:34:41.255Z,11.23
2023-01-22T18:37:10.681Z,13.40
2023-01-22T18:39:39.781Z,10.63
2023-01-22T18:42:07.945Z,10.93
2023-01-22T18:44:35.847Z,9.57
2023-01-22T18:47:07.588Z,9.50
2023-01-22T18:49:36.182Z,7.97
2023-01-22T18:52:05.540Z,8.13
2023-01-22T18:54:33.736Z,11.13
2023-01-22T18:57:01.696Z,11.67
2023-01-22T18:59:29.645Z,9.40
2023-01-22T19:01:57.905Z,8.80
2023-01-22T19:04:25.726Z,9.63
2023-01-22T19:06:54.499Z,11.67
2023-01-22T19:09:24.086Z,11.37
2023-01-22T19:11:53.267Z,8.43
2023-01-22T19:14:21.999Z,11.67
2023-01-22T19:16:51.494Z,6.47
2023-01-22T19:19:20.022Z,9.30
2023-01-22T19:21:51.680Z,7.00
2023-01-22T19:24:22.437Z,6.73
2023-01-22T19:26:52.630Z,4.37
2023-01-22T19:29:22.993Z,9.23
2023-01-22T19:31:52.290Z,4.37
2023-01-22T19:34:23.989Z,6.40
2023-01-22T19:36:52.649Z,6.80
2023-01-22T19:39:20.465Z,8.57
2023-01-22T19:41:50.242Z,7.37
2023-01-22T19:44:19.978Z,8.57
2023-01-22T19:46:49.564Z,9.17
2023-01-22T19:49:17.585Z,10.57
2023-01-22T19:51:46.164Z,12.20
2023-01-22T19:54:14.264Z,11.43
2023-01-22T19:56:45.551Z,9.30
2023-01-22T19:59:15.135Z,6.83
2023-01-22T20:01:45.686Z,5.80
2023-01-22T20:04:25.447Z,10.40
2023-01-22T20:06:57.020Z,8.73
2023-01-22T20:09:24.855Z,9.43
2023-01-22T20:11:53.882Z,7.57
2023-01-22T20:14:22.090Z,6.23
2023-01-22T20:16:51.730Z,7.20
2023-01-22T20:19:19.987Z,6.97
2023-01-22T20:21:47.759Z,5.90
2023-01-22T20:24:15.896Z,6.63
2023-01-22T20:26:43.883Z,6.43
2023-01-22T20:29:12.788Z,6.67
2023-01-22T20:31:42.190Z,8.47
2023-01-22T20:34:11.356Z,5.47
2023-01-22T20:36:39.017Z,4.97
2023-01-22T20:39:07.308Z,5.23
2023-01-22T20:41:35.580Z,8.40
2023-01-22T20:44:04.020Z,5.87
2023-01-22T20:46:32.656Z,6.00
2023-01-22T20:49:00.532Z,6.30
2023-01-22T20:51:30.117Z,6.97
2023-01-22T20:53:58.908Z,8.13
2023-01-22T20:56:30.326Z,9.47
2023-01-22T20:58:59.153Z,8.77
2023-01-22T21:01:27.812Z,9.57
2023-01-22T21:03:56.419Z,9.53
2023-01-22T21:06:24.684Z,5.77
2023-01-22T21:08:56.300Z,5.87
2023-01-22T21:11:24.757Z,6.53
2023-01-22T21:13:53.153Z,5.87
2023-01-22T21:16:23.167Z,7.40
2023-01-22T21:18:51.189Z,4.87
2023-01-22T21:21:21.005Z,6.73
2023-01-22T21:23:49.282Z,5.57
2023-01-22T21:26:19.404Z,7.70
2023-01-22T21:28:48.114Z,8.37
2023-01-22T21:31:17.486Z,6.40
2023-01-22T21:33:45.720Z,10.13
2023-01-22T21:36:14.636Z,7.37
2023-01-22T21:38:42.487Z,8.90
2023-01-22T21:41:12.622Z,9.83
2023-01-22T21:44:00.398Z,9.77
2023-01-22T21:46:29.890Z,8.30
2023-01-22T21:48:59.053Z,12.17
2023-01-22T21:51:27.298Z,14.53
2023-01-22T21:53:58.149Z,11.40
2023-01-22T21:56:26.824Z,9.50
2023-01-22T21:58:57.128Z,9.30
2023-01-22T22:01:25.404Z,9.30
2023-01-22T22:03:53.522Z,5.70
2023-01-22T22:06:21.300Z,6.77
2023-01-22T22:08:49.085Z,6.43
2023-01-22T22:11:17.408Z,5.50
2023-01-22T22:13:45.071Z,6.17
2023-01-22T22:16:14.688Z,5.37
2023-01-22T22:18:42.731Z,7.30
2023-01-22T22:21:10.970Z,4.90
2023-01-22T22:23:39.170Z,6.23
2023-01-22T22:26:07.503Z,6.20
2023-01-22T22:28:35.795Z,5.73
2023-01-22T22:31:04.746Z,6.50
2023-01-22T22:33:34.605Z,5.53
2023-01-22T22:36:03.214Z,8.33
2023-01-22T22:38:31.748Z,7.67
2023-01-22T22:41:00.567Z,6.13
2023-01-22T22:43:29.740Z,7.93
2023-01-22T22:46:02.197Z,7.87
2023-01-22T22:48:30.235Z,7.33
2023-01-22T22:50:59.824Z,11.53
2023-01-22T22:53:29.040Z,5.57
2023-01-22T22:55:57.063Z,7.53
2023-01-22T22:58:25.047Z,6.27
2023-01-22T23:00:53.816Z,6.73
2023-01-22T23:03:21.871Z,6.33
2023-01-22T23:05:50.002Z,5.70
2023-01-22T23:08:19.732Z,7.17
2023-01-22T23:10:47.458Z,4.30
2023-01-22T23:13:15.452Z,5.83
2023-01-22T23:15:43.221Z,5.47
2023-01-22T23:18:10.951Z,4.53
2023-01-22T23:20:39.106Z,6.10
2023-01-22T23:23:07.053Z,6.73
2023-01-22T23:25:36.689Z,8.33
2023-01-22T23:28:04.530Z,8.73
2023-01-22T23:30:32.482Z,10.17
2023-01-22T23:33:00.992Z,5.90
2023-01-22T23:35:28.792Z,7.23
2023-01-22T23:37:56.723Z,7.13
2023-01-22T23:40:24.815Z,6.17
2023-01-22T23:42:54.105Z,6.63
2023-01-22T23:45:22.445Z,6.87
2023-01-22T23:47:52.188Z,10.87
2023-01-22T23:50:21.780Z,5.90
2023-01-22T23:52:49.578Z,8.57
2023-01-22T23:55:17.698Z,5.20
2023-01-22T23:57:45.655Z,13.43
